Big Bear Station Historical Data
Daily Summary for February 3, 2017 Units:  English    Metric   Both
« Previous Day
Next Day »
Daily Weekly Monthly Yearly Custom
  High: Low: Average:
Temperature: 44.2 °F 31.6 °F 37.6 °F
Dew Point: 39.9 °F 27.8 °F 35.2 °F
Humidity: 97 % 79 % 91 %
Wind Speed: 8.9 mph 0.0 mph 2.6 mph
Wind Gust: -999.0 mph - -
Wind:- - SSW
Pressure: 30.16 in 30.09 in -
Precipitation: 0.21 in    
Historical Graphs
 
 
Tabular Data for February 3, 2017
Time Temperature Dew Point Pressure Wind Wind Speed Wind Gust Humidity Rainfall Rate (Hourly)
00:29 37.0 °F 31.7 °F 30.14 in SE 2.2 mph -999.0 mph 81 % 0 in
00:44 37.0 °F 31.1 °F 30.14 in East 1.7 mph -999.0 mph 79 % 0 in
00:59 36.9 °F 31.3 °F 30.13 in NNE 2.2 mph -999.0 mph 80 % 0 in
01:15 36.5 °F 31.5 °F 30.13 in South 2.2 mph -999.0 mph 82 % 0 in
01:30 37.2 °F 32.8 °F 30.13 in SSE 2.2 mph -999.0 mph 84 % 0 in
01:45 37.4 °F 34.2 °F 30.13 in Calm   -999.0 mph 88 % 0 in
02:01 37.4 °F 34.2 °F 30.12 in Calm   -999.0 mph 88 % 0 in
02:16 37.2 °F 35.1 °F 30.12 in South 4.2 mph -999.0 mph 92 % 0 in
02:31 37.6 °F 36.0 °F 30.10 in South 6.3 mph -999.0 mph 94 % 0 in
02:47 37.2 °F 35.6 °F 30.11 in West 4.2 mph -999.0 mph 94 % 0 in
03:02 37.0 °F 35.7 °F 30.11 in NW 1.1 mph -999.0 mph 95 % 0 in
03:17 37.0 °F 36.0 °F 30.10 in South 1.7 mph -999.0 mph 96 % 0 in
03:32 37.6 °F 36.8 °F 30.10 in NE 2.2 mph -999.0 mph 97 % 0 in
03:47 37.9 °F 37.1 °F 30.10 in ENE 6.3 mph -999.0 mph 97 % 0 in
04:03 37.8 °F 37.0 °F 30.10 in SW 4.2 mph -999.0 mph 97 % 0 in
04:18 37.6 °F 36.8 °F 30.10 in NW 2.7 mph -999.0 mph 97 % 0 in
04:33 37.4 °F 36.4 °F 30.10 in West 3.2 mph -999.0 mph 96 % 0 in
04:48 37.2 °F 35.9 °F 30.11 in SW 1.7 mph -999.0 mph 95 % 0 in
05:03 37.2 °F 35.9 °F 30.11 in SW 2.7 mph -999.0 mph 95 % 0 in
05:19 36.9 °F 35.1 °F 30.11 in NW 3.2 mph -999.0 mph 93 % 0 in
05:34 36.3 °F 34.2 °F 30.11 in South 2.7 mph -999.0 mph 92 % 0 in
05:49 35.8 °F 33.4 °F 30.12 in North 2.2 mph -999.0 mph 91 % 0 in
06:04 35.8 °F 33.4 °F 30.12 in SW 2.2 mph -999.0 mph 91 % 0 in
06:19 36.0 °F 33.9 °F 30.12 in NNE 1.7 mph -999.0 mph 92 % 0 in
06:35 36.0 °F 34.2 °F 30.12 in NW 2.7 mph -999.0 mph 93 % 0 in
06:50 36.1 °F 34.5 °F 30.12 in NW 8.9 mph -999.0 mph 94 % 0 in
07:05 36.1 °F 34.3 °F 30.12 in NW 3.7 mph -999.0 mph 93 % 0 in
07:20 36.0 °F 34.2 °F 30.12 in WNW 2.7 mph -999.0 mph 93 % 0 in
07:35 36.3 °F 34.7 °F 30.13 in WNW 2.2 mph -999.0 mph 94 % 0 in
07:51 36.7 °F 35.1 °F 30.13 in Calm   -999.0 mph 94 % 0 in
08:06 36.9 °F 35.1 °F 30.14 in Calm   -999.0 mph 93 % 0 in
08:21 37.6 °F 35.8 °F 30.14 in North 3.7 mph -999.0 mph 93 % 0 in
08:36 38.7 °F 36.3 °F 30.14 in Calm   -999.0 mph 91 % 0 in
08:52 39.6 °F 36.9 °F 30.14 in Calm   -999.0 mph 90 % 0 in
09:07 41.4 °F 37.8 °F 30.16 in Calm   -999.0 mph 87 % 0 in
09:22 42.1 °F 38.8 °F 30.16 in SSW 2.7 mph -999.0 mph 88 % 0 in
09:37 43.2 °F 39.3 °F 30.15 in Calm   -999.0 mph 86 % 0 in
09:52 44.2 °F 39.7 °F 30.15 in West 2.2 mph -999.0 mph 84 % 0 in
10:08 43.7 °F 39.5 °F 30.15 in NW 2.7 mph -999.0 mph 85 % 0 in
10:23 42.3 °F 38.7 °F 30.15 in ENE 1.7 mph -999.0 mph 87 % 0 in
10:38 43.0 °F 39.1 °F 30.15 in WNW 1.7 mph -999.0 mph 86 % 0 in
10:53 43.9 °F 39.7 °F 30.15 in Calm   -999.0 mph 85 % 0 in
11:08 43.7 °F 39.8 °F 30.14 in NNW 1.7 mph -999.0 mph 86 % 0 in
11:24 42.6 °F 39.9 °F 30.13 in Calm   -999.0 mph 90 % 0 in
11:39 42.4 °F 39.7 °F 30.13 in NNE 1.7 mph -999.0 mph 90 % 0 in
11:54 42.8 °F 39.8 °F 30.12 in NNE 2.7 mph -999.0 mph 89 % 0 in
12:09 41.5 °F 38.8 °F 30.12 in West 1.7 mph -999.0 mph 90 % 0 in
12:24 41.5 °F 39.1 °F 30.12 in South 3.7 mph -999.0 mph 91 % 0 in
12:40 42.1 °F 38.8 °F 30.11 in NNE 2.7 mph -999.0 mph 88 % 0 in
12:55 41.4 °F 38.7 °F 30.11 in SSE 1.7 mph -999.0 mph 90 % 0 in
13:10 40.8 °F 38.1 °F 30.10 in SW 3.7 mph -999.0 mph 90 % 0 in
13:25 41.5 °F 38.8 °F 30.10 in SSE 1.7 mph -999.0 mph 90 % 0 in
13:41 41.7 °F 38.7 °F 30.09 in NNW 2.2 mph -999.0 mph 89 % 0 in
13:56 41.2 °F 38.5 °F 30.10 in WNW 7.3 mph -999.0 mph 90 % 0 in
14:11 40.5 °F 37.5 °F 30.10 in NNE 5.8 mph -999.0 mph 89 % 0 in
14:26 39.7 °F 36.4 °F 30.10 in NW 5.8 mph -999.0 mph 88 % 0 in
14:41 39.2 °F 35.9 °F 30.10 in WNW 8.3 mph -999.0 mph 88 % 0 in
14:57 39.0 °F 35.5 °F 30.10 in SW 2.2 mph -999.0 mph 87 % 0 in
15:12 39.0 °F 35.7 °F 30.10 in North 7.3 mph -999.0 mph 88 % 0 in
15:27 39.0 °F 35.5 °F 30.10 in NNE 3.2 mph -999.0 mph 87 % 0 in
15:42 38.7 °F 35.5 °F 30.10 in East 7.8 mph -999.0 mph 88 % 0 in
15:57 38.7 °F 35.7 °F 30.10 in East 3.7 mph -999.0 mph 89 % 0 in
16:13 38.3 °F 35.6 °F 30.10 in SSE 6.3 mph -999.0 mph 90 % 0 in
16:28 38.1 °F 35.7 °F 30.11 in NW 3.7 mph -999.0 mph 91 % 0 in
16:44 37.6 °F 35.2 °F 30.11 in West 1.7 mph -999.0 mph 91 % 0 in
16:59 37.2 °F 35.1 °F 30.11 in Calm   -999.0 mph 92 % 0 in
17:15 37.0 °F 35.2 °F 30.11 in West 3.2 mph -999.0 mph 93 % 0 in
17:30 36.7 °F 35.1 °F 30.11 in SSE 4.7 mph -999.0 mph 94 % 0 in
17:45 36.3 °F 34.7 °F 30.11 in Calm   -999.0 mph 94 % 0 in
18:00 36.0 °F 34.4 °F 30.11 in Calm   -999.0 mph 94 % 0 in
18:16 36.1 °F 34.5 °F 30.12 in NNE 5.3 mph -999.0 mph 94 % 0 in
18:31 36.0 °F 34.7 °F 30.12 in SSE 1.7 mph -999.0 mph 95 % 0 in
18:47 35.8 °F 34.5 °F 30.12 in West 1.1 mph -999.0 mph 95 % 0 in
19:02 35.4 °F 34.1 °F 30.12 in WSW 1.7 mph -999.0 mph 95 % 0 in
19:17 35.1 °F 33.5 °F 30.13 in Calm   -999.0 mph 94 % 0 in
19:32 35.1 °F 33.5 °F 30.13 in WSW 1.7 mph -999.0 mph 94 % 0 in
19:48 34.7 °F 32.9 °F 30.13 in NE 2.2 mph -999.0 mph 93 % 0 in
20:03 34.2 °F 32.4 °F 30.13 in SSW 1.1 mph -999.0 mph 93 % 0 in
20:18 34.2 °F 32.4 °F 30.13 in SW 3.2 mph -999.0 mph 93 % 0 in
20:33 34.0 °F 32.5 °F 30.13 in West 2.2 mph -999.0 mph 94 % 0 in
20:49 34.0 °F 32.5 °F 30.12 in Calm   -999.0 mph 94 % 0 in
21:04 33.6 °F 32.1 °F 30.12 in NNW 1.7 mph -999.0 mph 94 % 0 in
21:19 33.6 °F 32.3 °F 30.12 in Calm   -999.0 mph 95 % 0 in
21:34 33.6 °F 32.3 °F 30.13 in SW 2.2 mph -999.0 mph 95 % 0 in
21:49 33.6 °F 32.6 °F 30.13 in South 3.7 mph -999.0 mph 96 % 0 in
22:05 33.3 °F 32.3 °F 30.13 in SW 1.7 mph -999.0 mph 96 % 0 in
22:20 32.9 °F 31.9 °F 30.13 in SW 2.2 mph -999.0 mph 96 % 0 in
22:35 32.7 °F 31.4 °F 30.13 in North 2.2 mph -999.0 mph 95 % 0 in
22:50 33.8 °F 28.9 °F 30.13 in SSE 3.7 mph -999.0 mph 82 % 0 in
23:06 33.3 °F 27.8 °F 30.12 in NW 4.7 mph -999.0 mph 80 % 0 in
23:21 32.2 °F 29.0 °F 30.13 in Calm   -999.0 mph 88 % 0 in
23:36 32.0 °F 29.4 °F 30.13 in WNW 1.7 mph -999.0 mph 90 % 0 in
23:51 31.6 °F 29.3 °F 30.12 in WNW 4.2 mph -999.0 mph 91 % 0 in
Big Bear CA Weather
Compliments of Weather Underground - 1.5 mb